Time;durP1;ratioP1;P1;durP2;ratioP2;P2;SDS_P1;SDS_P2;PMS_P1;PMS_P2;Temp;Humidity;BMP_temperature;BMP_pressure;BME280_temperature;BME280_humidity;BME280_pressure;Samples;Min_cycle;Max_cycle;Signal;HPM_P1;HPM_P2
2022/07/24 00:00:07;;;;;;;8.88;3.33;;;16.60;99.90;;;;;;5034523;28;20091;-47
2022/07/24 00:02:33;;;;;;;6.43;3.05;;;16.60;99.90;;;;;;5034431;28;20107;-46
2022/07/24 00:05:01;;;;;;;6.03;3.08;;;16.60;99.90;;;;;;5034260;28;20042;-46
2022/07/24 00:07:27;;;;;;;6.10;3.00;;;16.60;99.90;;;;;;5034030;28;20045;-45
2022/07/24 00:09:53;;;;;;;8.38;3.30;;;16.50;99.90;;;;;;5034341;28;20037;-46
2022/07/24 00:12:19;;;;;;;5.97;2.92;;;16.50;99.90;;;;;;5034123;28;20421;-46
2022/07/24 00:14:45;;;;;;;6.07;3.20;;;16.50;99.90;;;;;;5034034;28;20052;-46
2022/07/24 00:17:11;;;;;;;7.18;3.00;;;16.40;99.90;;;;;;5033153;28;20034;-45
2022/07/24 00:19:36;;;;;;;6.13;3.22;;;16.50;99.90;;;;;;5050644;28;20041;-46
2022/07/24 00:22:02;;;;;;;6.70;3.10;;;16.40;99.90;;;;;;5054056;28;20097;-46
2022/07/24 00:24:28;;;;;;;5.80;3.40;;;16.40;99.90;;;;;;5054068;28;20558;-46
2022/07/24 00:26:54;;;;;;;7.90;3.53;;;16.40;99.90;;;;;;5068967;28;20041;-47
2022/07/24 00:29:20;;;;;;;7.97;3.17;;;16.40;99.90;;;;;;5052281;28;20041;-49
2022/07/24 00:31:46;;;;;;;7.03;3.70;;;16.40;99.90;;;;;;5068909;28;20053;-58
2022/07/24 00:34:11;;;;;;;6.65;3.45;;;16.30;99.90;;;;;;5053701;28;20500;-58
2022/07/24 00:36:37;;;;;;;7.05;3.53;;;16.30;99.90;;;;;;5053658;28;20037;-59
2022/07/24 00:39:03;;;;;;;9.77;4.22;;;16.20;99.90;;;;;;5052205;28;20049;-58
2022/07/24 00:41:30;;;;;;;7.45;3.60;;;16.30;99.90;;;;;;5053282;28;20040;-58
2022/07/24 00:44:02;;;;;;;6.72;3.80;;;16.30;99.90;;;;;;5053649;28;20366;-58
2022/07/24 00:46:28;;;;;;;7.25;4.25;;;16.30;99.90;;;;;;5053230;28;20044;-58
2022/07/24 00:48:53;;;;;;;7.13;4.07;;;16.20;99.90;;;;;;5053330;28;20045;-58
2022/07/24 00:51:19;;;;;;;7.82;4.10;;;16.20;99.90;;;;;;5068515;28;20432;-59
2022/07/24 00:53:45;;;;;;;7.30;3.65;;;16.20;99.90;;;;;;5053268;28;20087;-58
2022/07/24 00:56:13;;;;;;;8.27;4.30;;;16.20;99.90;;;;;;5068571;28;20039;-58
2022/07/24 00:58:38;;;;;;;7.68;3.95;;;16.20;99.90;;;;;;5068267;28;20041;-58
2022/07/24 01:01:04;;;;;;;9.10;4.20;;;16.10;99.90;;;;;;5052898;28;20094;-58
2022/07/24 01:03:30;;;;;;;7.50;4.03;;;16.10;99.90;;;;;;5053098;28;20045;-58
2022/07/24 01:05:56;;;;;;;9.80;4.20;;;16.10;99.90;;;;;;5053158;28;20072;-59
2022/07/24 01:08:22;;;;;;;7.63;4.05;;;16.10;99.90;;;;;;5052984;28;20041;-58
2022/07/24 01:10:48;;;;;;;8.07;4.20;;;16.10;99.90;;;;;;5068741;28;20390;-57
2022/07/24 01:13:14;;;;;;;6.45;3.72;;;16.10;99.90;;;;;;5052806;28;20106;-57
2022/07/24 01:15:40;;;;;;;7.22;4.43;;;16.10;99.90;;;;;;5052644;28;20041;-57
2022/07/24 01:18:06;;;;;;;7.35;4.30;;;16.10;99.90;;;;;;5052831;28;20052;-58
2022/07/24 01:20:36;;;;;;;7.95;4.25;;;16.00;99.90;;;;;;5044352;28;20034;-57
2022/07/24 01:23:02;;;;;;;7.47;4.30;;;16.00;99.90;;;;;;5032899;28;20045;-57
2022/07/24 01:25:28;;;;;;;8.02;3.90;;;15.90;99.90;;;;;;5033142;28;20049;-57
2022/07/24 01:27:54;;;;;;;11.13;4.70;;;15.90;99.90;;;;;;5032579;28;20048;-57
2022/07/24 01:30:20;;;;;;;8.48;4.28;;;15.80;99.90;;;;;;5032826;28;20041;-57
2022/07/24 01:32:50;;;;;;;8.75;4.53;;;15.90;99.90;;;;;;5032319;28;20414;-58
2022/07/24 01:35:16;;;;;;;7.93;4.47;;;15.90;99.90;;;;;;5033959;28;20045;-58
2022/07/24 01:37:42;;;;;;;9.63;4.95;;;15.90;99.90;;;;;;5034349;28;20047;-57
2022/07/24 01:40:08;;;;;;;8.48;5.20;;;15.80;99.90;;;;;;5033199;28;20481;-58
2022/07/24 01:42:33;;;;;;;7.43;4.57;;;15.90;99.90;;;;;;5031121;28;20500;-57
2022/07/24 01:44:59;;;;;;;7.80;4.70;;;15.90;99.90;;;;;;5032261;28;20041;-57
2022/07/24 01:47:25;;;;;;;9.40;4.88;;;15.90;99.90;;;;;;5032436;28;20048;-57
2022/07/24 01:49:51;;;;;;;8.23;4.97;;;15.90;99.90;;;;;;5047980;28;20041;-58
2022/07/24 01:52:16;;;;;;;7.45;4.60;;;15.90;99.90;;;;;;5032484;28;20099;-57
2022/07/24 01:54:42;;;;;;;6.97;4.43;;;15.80;99.90;;;;;;5047814;28;20072;-59
2022/07/24 01:57:08;;;;;;;9.02;5.10;;;15.80;99.90;;;;;;5030981;28;20045;-59
2022/07/24 01:59:34;;;;;;;8.65;4.85;;;15.90;99.90;;;;;;5032142;28;20038;-58
2022/07/24 02:02:00;;;;;;;9.32;5.20;;;15.80;99.90;;;;;;5032177;28;20041;-58
2022/07/24 02:04:25;;;;;;;7.60;4.53;;;15.80;99.90;;;;;;5032087;28;20049;-58
2022/07/24 02:06:51;;;;;;;7.95;5.28;;;15.80;99.90;;;;;;5032365;28;20037;-57
2022/07/24 02:09:16;;;;;;;8.40;5.05;;;15.80;99.90;;;;;;5031898;28;20048;-58
2022/07/24 02:11:42;;;;;;;14.70;5.63;;;15.70;99.90;;;;;;5030891;28;20041;-58
2022/07/24 02:14:08;;;;;;;8.32;5.03;;;15.70;99.90;;;;;;5031945;28;20048;-57
2022/07/24 02:16:33;;;;;;;9.05;5.80;;;15.80;99.90;;;;;;5047284;28;20045;-58
2022/07/24 02:18:59;;;;;;;8.05;5.22;;;15.80;99.90;;;;;;5032269;28;20041;-58
2022/07/24 02:21:25;;;;;;;10.85;5.63;;;15.70;99.90;;;;;;5047929;28;20036;-58
2022/07/24 02:23:51;;;;;;;9.45;5.13;;;15.80;99.90;;;;;;5051772;28;20041;-57
2022/07/24 02:26:17;;;;;;;11.07;5.38;;;15.80;99.90;;;;;;5052174;28;20045;-58
2022/07/24 02:28:42;;;;;;;9.65;5.70;;;15.80;99.90;;;;;;5051849;28;20040;-58
2022/07/24 02:31:08;;;;;;;9.52;5.60;;;15.80;99.90;;;;;;5066945;28;20044;-57
2022/07/24 02:33:33;;;;;;;8.95;6.05;;;15.80;99.90;;;;;;5051579;28;20416;-57
2022/07/24 02:35:59;;;;;;;7.97;5.65;;;15.80;99.90;;;;;;5051786;28;20072;-58
2022/07/24 02:38:25;;;;;;;9.05;5.90;;;15.80;99.90;;;;;;5052007;28;20067;-58
2022/07/24 02:40:50;;;;;;;8.60;5.40;;;15.80;99.90;;;;;;5054385;28;20091;-57
2022/07/24 02:43:16;;;;;;;8.10;5.57;;;15.80;99.90;;;;;;5055891;28;20091;-57
2022/07/24 02:45:42;;;;;;;10.32;6.88;;;15.80;99.90;;;;;;5055603;28;20040;-58
2022/07/24 02:48:07;;;;;;;10.57;6.22;;;15.80;99.90;;;;;;5055851;28;20044;-58
2022/07/24 02:50:35;;;;;;;9.18;6.10;;;15.80;99.90;;;;;;5055852;28;20033;-57
2022/07/24 02:53:01;;;;;;;8.75;5.80;;;15.80;99.90;;;;;;5055754;28;20041;-57
2022/07/24 02:55:28;;;;;;;9.23;5.90;;;15.80;99.90;;;;;;5055351;28;20405;-57
2022/07/24 02:57:55;;;;;;;8.50;6.60;;;15.80;99.90;;;;;;5055452;28;20490;-58
2022/07/24 03:00:22;;;;;;;9.77;6.68;;;15.80;99.90;;;;;;5055322;28;20389;-57
2022/07/24 03:02:47;;;;;;;10.18;5.82;;;15.80;99.90;;;;;;5055211;28;20127;-58
2022/07/24 03:05:13;;;;;;;9.90;6.50;;;15.80;99.90;;;;;;5055393;28;20124;-57
2022/07/24 03:07:39;;;;;;;9.95;6.30;;;15.80;99.90;;;;;;5055330;28;20041;-57
2022/07/24 03:10:08;;;;;;;11.20;6.80;;;15.90;99.90;;;;;;5055172;28;20428;-58
2022/07/24 03:12:34;;;;;;;11.18;6.43;;;15.80;99.90;;;;;;5055324;28;20049;-57
2022/07/24 03:15:00;;;;;;;10.98;7.00;;;15.80;99.90;;;;;;5054910;28;20040;-57
2022/07/24 03:17:26;;;;;;;11.18;6.97;;;15.80;99.90;;;;;;5055052;28;20041;-57
2022/07/24 03:19:52;;;;;;;9.93;6.82;;;15.80;99.90;;;;;;5051571;28;20033;-57
2022/07/24 03:22:17;;;;;;;11.30;7.30;;;15.80;99.90;;;;;;5035264;28;20077;-57
2022/07/24 03:24:43;;;;;;;10.45;7.50;;;15.80;99.90;;;;;;5035055;28;20037;-57
2022/07/24 03:27:09;;;;;;;10.55;7.18;;;15.80;99.90;;;;;;5034913;28;20069;-57
2022/07/24 03:29:35;;;;;;;10.13;6.95;;;15.80;99.90;;;;;;5033813;28;20167;-57
2022/07/24 03:32:00;;;;;;;9.73;6.38;;;15.80;99.90;;;;;;5034751;28;20049;-58
2022/07/24 03:34:26;;;;;;;17.13;6.85;;;15.80;99.90;;;;;;5034568;28;20053;-58
2022/07/24 03:36:52;;;;;;;10.25;7.30;;;15.80;99.90;;;;;;5034871;28;20042;-57
2022/07/24 03:39:18;;;;;;;11.27;7.57;;;15.80;99.90;;;;;;5034884;28;20116;-57
2022/07/24 03:41:43;;;;;;;12.05;7.47;;;15.80;99.90;;;;;;5033486;28;20560;-57
2022/07/24 03:44:09;;;;;;;11.63;7.15;;;15.80;99.90;;;;;;5034508;28;20457;-57
2022/07/24 03:46:35;;;;;;;11.27;7.45;;;15.80;99.90;;;;;;5034860;28;20041;-59
2022/07/24 03:49:01;;;;;;;11.65;7.97;;;15.80;99.90;;;;;;5033430;28;20060;-58
2022/07/24 03:51:26;;;;;;;12.02;8.10;;;15.90;99.90;;;;;;5033484;28;20049;-45
2022/07/24 03:53:52;;;;;;;9.70;6.90;;;15.80;99.90;;;;;;5034703;28;20077;-45
2022/07/24 03:56:18;;;;;;;10.73;7.45;;;15.90;99.90;;;;;;5034177;28;20056;-46
2022/07/24 03:58:44;;;;;;;9.82;7.60;;;15.80;99.90;;;;;;5034171;28;20084;-45
2022/07/24 04:01:10;;;;;;;11.00;7.63;;;15.80;99.90;;;;;;5034319;28;20124;-47
2022/07/24 04:03:35;;;;;;;11.82;7.60;;;15.80;99.90;;;;;;5034353;28;20486;-45
2022/07/24 04:06:03;;;;;;;11.40;8.45;;;15.80;99.90;;;;;;5034000;28;20099;-47
2022/07/24 04:08:28;;;;;;;11.15;7.93;;;15.70;99.90;;;;;;5034356;28;20041;-49
2022/07/24 04:10:56;;;;;;;11.63;7.55;;;15.80;99.90;;;;;;5032864;28;20056;-49
2022/07/24 04:13:27;;;;;;;10.73;7.68;;;15.80;99.90;;;;;;5034116;28;20128;-48
2022/07/24 04:15:53;;;;;;;10.82;7.38;;;15.80;99.90;;;;;;5034080;28;20362;-48
2022/07/24 04:18:19;;;;;;;10.55;7.95;;;15.90;99.90;;;;;;5034040;28;20033;-47
2022/07/24 04:20:45;;;;;;;12.15;7.72;;;15.90;99.90;;;;;;5044576;28;20043;-45
2022/07/24 04:23:10;;;;;;;11.32;8.20;;;16.00;99.90;;;;;;5054090;28;20045;-46
2022/07/24 04:25:36;;;;;;;11.70;8.43;;;15.90;99.90;;;;;;5054241;28;20449;-48
2022/07/24 04:28:02;;;;;;;12.00;7.68;;;16.00;99.90;;;;;;5054010;28;20052;-45
2022/07/24 04:30:28;;;;;;;11.50;8.55;;;15.90;99.90;;;;;;5052380;28;20087;-45
2022/07/24 04:32:53;;;;;;;10.23;7.28;;;15.90;99.90;;;;;;5053489;28;20056;-47
2022/07/24 04:35:19;;;;;;;10.52;7.20;;;16.00;99.90;;;;;;5053817;28;20105;-45
2022/07/24 04:37:45;;;;;;;11.05;8.15;;;16.00;99.90;;;;;;5053680;28;20047;-45
2022/07/24 04:40:12;;;;;;;12.00;8.00;;;16.00;99.90;;;;;;5053723;28;20075;-46
2022/07/24 04:42:39;;;;;;;9.75;6.50;;;15.90;99.90;;;;;;5052106;28;20554;-46
2022/07/24 04:45:05;;;;;;;10.50;8.25;;;16.00;99.90;;;;;;5053428;28;20099;-46
2022/07/24 04:47:31;;;;;;;9.98;6.85;;;16.00;99.90;;;;;;5053663;28;20381;-45
2022/07/24 04:49:56;;;;;;;12.65;8.95;;;16.00;99.90;;;;;;5053509;28;20037;-46
2022/07/24 04:52:22;;;;;;;12.05;8.15;;;16.10;99.90;;;;;;5068844;28;20043;-45
2022/07/24 04:54:48;;;;;;;13.02;8.05;;;16.20;99.90;;;;;;5053017;28;20040;-44
2022/07/24 04:57:14;;;;;;;10.82;8.35;;;16.30;99.90;;;;;;5053040;28;20393;-45
2022/07/24 04:59:39;;;;;;;10.95;7.38;;;16.40;99.90;;;;;;5053160;28;20039;-45
2022/07/24 05:02:05;;;;;;;11.95;7.65;;;16.40;99.90;;;;;;5053054;28;20044;-45
2022/07/24 05:04:31;;;;;;;12.30;7.85;;;16.50;99.90;;;;;;5053154;28;20045;-45
2022/07/24 05:06:56;;;;;;;12.93;8.45;;;16.60;99.90;;;;;;5053142;28;20116;-45
2022/07/24 05:09:22;;;;;;;10.98;7.10;;;16.60;99.90;;;;;;5053023;28;20525;-45
2022/07/24 05:11:48;;;;;;;11.15;7.65;;;16.60;99.90;;;;;;5053046;28;20389;-47
2022/07/24 05:14:13;;;;;;;10.15;7.47;;;16.60;99.90;;;;;;5053025;28;20501;-45
2022/07/24 05:16:39;;;;;;;10.23;7.88;;;16.60;99.90;;;;;;5052645;28;20133;-45
2022/07/24 05:19:05;;;;;;;11.60;7.85;;;16.60;99.90;;;;;;5052566;28;20040;-45
2022/07/24 05:21:31;;;;;;;11.50;7.78;;;16.70;99.90;;;;;;5035928;28;20033;-44
2022/07/24 05:24:01;;;;;;;12.05;8.05;;;16.60;99.90;;;;;;5032887;28;20061;-47
2022/07/24 05:26:27;;;;;;;12.25;9.25;;;16.60;99.90;;;;;;5032739;28;20371;-49
2022/07/24 05:28:52;;;;;;;11.57;8.07;;;16.70;99.90;;;;;;5032558;28;20048;-45
2022/07/24 05:31:18;;;;;;;12.40;8.30;;;16.70;99.90;;;;;;5032355;28;20045;-47
2022/07/24 05:33:43;;;;;;;11.55;8.10;;;16.80;99.90;;;;;;5032738;28;20054;-48
2022/07/24 05:36:09;;;;;;;11.25;8.73;;;16.80;99.90;;;;;;5032612;28;20041;-50
2022/07/24 05:38:35;;;;;;;14.05;8.90;;;16.90;99.90;;;;;;5032418;28;20033;-44
2022/07/24 05:41:01;;;;;;;12.07;8.35;;;17.00;99.90;;;;;;5032619;28;20044;-46
2022/07/24 05:43:27;;;;;;;12.63;8.55;;;17.10;99.90;;;;;;5031318;28;20109;-46
2022/07/24 05:45:53;;;;;;;12.05;8.05;;;17.30;99.90;;;;;;5032430;28;20041;-45
2022/07/24 05:48:18;;;;;;;11.43;9.13;;;17.30;99.90;;;;;;5032363;28;20404;-45
2022/07/24 05:50:44;;;;;;;13.55;8.95;;;17.40;99.90;;;;;;5032559;28;20458;-47
2022/07/24 05:53:10;;;;;;;11.95;8.18;;;17.50;99.90;;;;;;5032001;28;20510;-46
2022/07/24 05:55:35;;;;;;;12.38;8.15;;;17.70;99.90;;;;;;5032583;28;20084;-45
2022/07/24 05:58:02;;;;;;;13.32;9.25;;;17.70;99.90;;;;;;5032381;28;20041;-48
2022/07/24 06:00:28;;;;;;;13.23;9.65;;;17.80;99.90;;;;;;5032148;28;20489;-47
2022/07/24 06:02:54;;;;;;;14.85;9.68;;;17.90;99.90;;;;;;5032264;28;20125;-45
2022/07/24 06:05:20;;;;;;;13.27;9.45;;;17.90;99.90;;;;;;5030967;28;20164;-46
2022/07/24 06:07:45;;;;;;;11.98;8.65;;;18.10;99.90;;;;;;5032193;28;20116;-49
2022/07/24 06:10:11;;;;;;;13.45;8.73;;;18.30;99.90;;;;;;5047410;28;20041;-45
2022/07/24 06:12:37;;;;;;;14.48;9.45;;;18.20;99.90;;;;;;5031978;28;20103;-44
2022/07/24 06:15:04;;;;;;;13.82;9.80;;;18.20;99.90;;;;;;5033916;28;20072;-45
2022/07/24 06:17:29;;;;;;;12.18;9.43;;;18.30;99.90;;;;;;5036252;28;20371;-45
2022/07/24 06:19:55;;;;;;;14.15;10.13;;;18.40;99.90;;;;;;5039979;28;20043;-45
2022/07/24 06:22:20;;;;;;;15.07;9.82;;;18.50;99.90;;;;;;5071652;28;20041;-44
2022/07/24 06:24:46;;;;;;;12.70;10.02;;;18.60;99.90;;;;;;5055886;28;20049;-45
2022/07/24 06:27:12;;;;;;;13.18;10.60;;;18.60;99.90;;;;;;5056196;28;20028;-45
2022/07/24 06:29:37;;;;;;;12.98;10.07;;;18.80;99.90;;;;;;5056239;28;20123;-46
2022/07/24 06:32:03;;;;;;;14.15;11.23;;;18.80;99.90;;;;;;5055761;28;20068;-47
2022/07/24 06:34:29;;;;;;;14.80;11.25;;;18.90;99.90;;;;;;5055806;28;20096;-47
2022/07/24 06:36:55;;;;;;;14.00;10.48;;;19.00;99.90;;;;;;5055797;28;20064;-50
2022/07/24 06:39:20;;;;;;;15.35;11.27;;;19.10;99.90;;;;;;5055671;28;20052;-48
2022/07/24 06:41:46;;;;;;;18.88;11.65;;;19.10;99.90;;;;;;5055875;28;20036;-48
2022/07/24 06:44:12;;;;;;;15.30;11.15;;;19.20;99.90;;;;;;5055817;28;20045;-49
2022/07/24 06:46:37;;;;;;;16.95;12.20;;;19.30;99.90;;;;;;5070974;28;20083;-50
2022/07/24 06:49:03;;;;;;;16.85;11.85;;;19.40;99.90;;;;;;5054336;28;20130;-47
2022/07/24 06:51:28;;;;;;;16.02;11.15;;;19.50;99.90;;;;;;5055580;28;20128;-45
2022/07/24 06:53:54;;;;;;;17.92;12.88;;;19.60;99.90;;;;;;5055361;28;20056;-50
2022/07/24 06:56:20;;;;;;;19.02;11.25;;;19.70;99.90;;;;;;5071162;28;20037;-51
2022/07/24 06:58:46;;;;;;;17.25;11.93;;;19.80;99.90;;;;;;5055665;28;20043;-51
2022/07/24 07:01:11;;;;;;;16.67;12.20;;;19.90;99.90;;;;;;5054193;28;20072;-49
2022/07/24 07:03:37;;;;;;;14.93;12.27;;;20.00;99.90;;;;;;5055162;28;20033;-46
2022/07/24 07:06:03;;;;;;;17.60;12.57;;;20.10;99.90;;;;;;5055106;28;20044;-45
2022/07/24 07:08:29;;;;;;;17.75;13.75;;;20.20;99.90;;;;;;5054965;28;20670;-49
2022/07/24 07:10:54;;;;;;;16.20;12.40;;;20.10;99.90;;;;;;5055337;28;20041;-47
2022/07/24 07:13:20;;;;;;;15.88;12.77;;;20.20;99.90;;;;;;5055094;28;20098;-47
2022/07/24 07:15:46;;;;;;;16.08;11.65;;;20.20;99.90;;;;;;5055179;28;20056;-45
2022/07/24 07:18:11;;;;;;;19.55;11.60;;;20.30;99.90;;;;;;5070412;28;20040;-45
2022/07/24 07:20:37;;;;;;;14.00;11.38;;;20.50;99.90;;;;;;5045322;28;20046;-46
2022/07/24 07:23:03;;;;;;;14.43;11.00;;;20.70;99.90;;;;;;5033657;28;20041;-45
2022/07/24 07:25:29;;;;;;;14.43;11.25;;;21.00;99.90;;;;;;5035112;28;20046;-47
2022/07/24 07:27:54;;;;;;;14.82;11.05;;;21.10;99.90;;;;;;5034908;28;20045;-45
2022/07/24 07:30:21;;;;;;;11.50;9.05;;;21.30;99.90;;;;;;5034855;28;20474;-44
2022/07/24 07:32:47;;;;;;;14.30;9.40;;;21.50;99.90;;;;;;5034650;28;20147;-45
2022/07/24 07:35:12;;;;;;;12.63;8.93;;;21.70;99.90;;;;;;5034806;28;20506;-45
2022/07/24 07:37:38;;;;;;;13.52;8.75;;;21.70;99.90;;;;;;5034749;28;20107;-45
2022/07/24 07:40:04;;;;;;;11.85;8.93;;;21.50;99.90;;;;;;5050016;28;20075;-46
2022/07/24 07:42:30;;;;;;;11.48;8.75;;;21.50;99.90;;;;;;5034757;28;20127;-46
2022/07/24 07:44:56;;;;;;;11.75;7.57;;;21.30;99.90;;;;;;5034646;28;20529;-45
2022/07/24 07:47:21;;;;;;;12.65;7.38;;;21.30;99.90;;;;;;5034492;28;20050;-49
2022/07/24 07:49:47;;;;;;;11.45;7.90;;;21.20;99.90;;;;;;5034402;28;20052;-46
2022/07/24 07:52:13;;;;;;;10.73;7.32;;;21.30;99.90;;;;;;5034815;28;20077;-47
2022/07/24 07:54:38;;;;;;;10.85;7.00;;;21.20;99.90;;;;;;5034488;28;20383;-49
2022/07/24 07:57:04;;;;;;;14.35;7.03;;;21.20;99.90;;;;;;5034517;28;20037;-46
2022/07/24 07:59:30;;;;;;;11.73;7.82;;;21.30;99.90;;;;;;5034409;28;20187;-51
2022/07/24 08:01:55;;;;;;;13.20;7.10;;;21.40;99.90;;;;;;5034283;28;20075;-45
2022/07/24 08:04:21;;;;;;;11.55;7.65;;;21.30;99.90;;;;;;5032982;28;20128;-47
2022/07/24 08:06:47;;;;;;;10.45;7.15;;;21.40;99.90;;;;;;5034436;28;20037;-47
2022/07/24 08:09:12;;;;;;;11.15;6.47;;;21.50;99.90;;;;;;5034207;28;20049;-48
2022/07/24 08:11:38;;;;;;;13.20;7.15;;;21.60;99.90;;;;;;5034271;28;20425;-47
2022/07/24 08:14:04;;;;;;;8.93;6.63;;;21.70;99.90;;;;;;5034249;28;20088;-50
2022/07/24 08:16:30;;;;;;;10.90;6.43;;;21.80;99.90;;;;;;5034171;28;20100;-48
2022/07/24 08:18:56;;;;;;;10.75;6.78;;;22.00;99.90;;;;;;5049310;28;20501;-50
2022/07/24 08:21:22;;;;;;;9.88;6.13;;;22.00;99.90;;;;;;5049693;28;20079;-48
2022/07/24 08:23:48;;;;;;;10.30;6.35;;;22.00;99.90;;;;;;5053533;28;20473;-49
2022/07/24 08:26:14;;;;;;;9.38;5.75;;;22.00;99.90;;;;;;5053596;28;20177;-45
2022/07/24 08:28:40;;;;;;;10.50;6.30;;;22.00;99.90;;;;;;5053790;28;20071;-46
2022/07/24 08:31:06;;;;;;;11.57;5.60;;;21.90;99.90;;;;;;5053808;28;20128;-46
2022/07/24 08:33:31;;;;;;;8.60;5.55;;;22.00;99.90;;;;;;5053808;28;20056;-46
2022/07/24 08:35:57;;;;;;;9.85;4.90;;;22.00;99.90;;;;;;5068794;28;20045;-45
2022/07/24 08:38:23;;;;;;;9.30;5.05;;;22.00;99.90;;;;;;5052927;28;20041;-46
2022/07/24 08:40:50;;;;;;;8.70;4.63;;;22.10;99.90;;;;;;5053682;28;20037;-45
2022/07/24 08:43:16;;;;;;;10.10;4.95;;;22.30;99.90;;;;;;5068845;28;20048;-45
2022/07/24 08:45:43;;;;;;;8.30;4.60;;;22.40;99.90;;;;;;5052060;28;20051;-48
2022/07/24 08:48:10;;;;;;;8.18;5.07;;;22.40;99.90;;;;;;5053229;28;20477;-46
2022/07/24 08:50:40;;;;;;;7.95;5.20;;;22.40;99.90;;;;;;5053393;28;20044;-51
2022/07/24 08:53:07;;;;;;;8.15;4.78;;;22.40;99.90;;;;;;5053433;28;20405;-50
2022/07/24 08:55:33;;;;;;;11.55;6.03;;;22.40;99.90;;;;;;5051788;28;20459;-49
2022/07/24 08:58:00;;;;;;;9.90;5.63;;;22.40;99.90;;;;;;5053273;28;20041;-50
2022/07/24 09:00:27;;;;;;;8.32;5.07;;;22.40;99.90;;;;;;5052963;28;20052;-46
2022/07/24 09:02:52;;;;;;;9.15;5.90;;;22.30;99.90;;;;;;5053027;28;20045;-48
2022/07/24 09:05:19;;;;;;;12.57;5.80;;;22.30;99.90;;;;;;5053239;28;20043;-49
2022/07/24 09:07:44;;;;;;;9.32;5.47;;;22.20;99.90;;;;;;5053126;28;20044;-46
2022/07/24 09:10:18;;;;;;;9.57;5.05;;;22.20;99.90;;;;;;5052882;28;20409;-46
2022/07/24 09:12:47;;;;;;;8.27;5.00;;;22.30;99.90;;;;;;5052745;28;20037;-46
2022/07/24 09:15:14;;;;;;;10.18;5.35;;;22.60;99.90;;;;;;5052686;28;20037;-47
2022/07/24 09:17:56;;;;;;;8.27;4.63;;;22.80;99.90;;;;;;5052696;28;20071;-47
2022/07/24 09:20:23;;;;;;;9.48;4.35;;;22.80;99.90;;;;;;5044225;28;20069;-46
2022/07/24 09:22:49;;;;;;;8.07;4.20;;;22.80;99.90;;;;;;5032994;28;20125;-47
2022/07/24 09:25:24;;;;;;;7.68;3.75;;;22.90;99.90;;;;;;5032707;28;20122;-47
2022/07/24 09:27:52;;;;;;;8.25;3.72;;;23.10;99.90;;;;;;5032612;28;20568;-47
2022/07/24 09:30:48;;;;;;;8.38;4.40;;;23.20;99.90;;;;;;5032586;28;20042;-47
2022/07/24 09:33:15;;;;;;;7.35;4.32;;;23.30;99.90;;;;;;5032350;28;20053;-45
2022/07/24 09:35:49;;;;;;;8.43;4.22;;;23.40;99.90;;;;;;5032716;28;20129;-47
2022/07/24 09:38:20;;;;;;;8.60;4.22;;;23.70;99.90;;;;;;5032836;28;20084;-47
2022/07/24 09:40:49;;;;;;;7.22;3.88;;;23.80;99.90;;;;;;5031328;28;20045;-48
2022/07/24 09:43:22;;;;;;;8.27;3.90;;;23.90;99.90;;;;;;5032737;28;20046;-45
2022/07/24 09:45:52;;;;;;;8.63;4.13;;;23.90;99.90;;;;;;5032649;28;20045;-47
2022/07/24 09:48:39;;;;;;;5.95;3.50;;;24.00;99.90;;;;;;5032485;28;20041;-46
2022/07/24 09:51:14;;;;;;;8.43;3.60;;;24.00;99.90;;;;;;5032156;28;20450;-48
2022/07/24 09:53:41;;;;;;;6.25;3.50;;;24.10;99.90;;;;;;5032472;28;20041;-49
2022/07/24 09:56:12;;;;;;;7.47;3.40;;;24.10;99.90;;;;;;5032417;28;20063;-46
2022/07/24 09:58:48;;;;;;;6.78;3.38;;;24.00;99.90;;;;;;5032206;28;20521;-47
2022/07/24 10:01:16;;;;;;;8.07;3.28;;;23.90;99.90;;;;;;5031070;28;20088;-45
2022/07/24 10:03:44;;;;;;;5.80;3.10;;;23.80;99.90;;;;;;5032403;28;20041;-48
2022/07/24 10:06:12;;;;;;;5.90;3.42;;;23.80;99.90;;;;;;5030810;28;20041;-45
2022/07/24 10:08:42;;;;;;;8.13;3.30;;;23.80;99.90;;;;;;5032050;28;20033;-46
2022/07/24 10:11:09;;;;;;;6.97;3.63;;;23.80;99.90;;;;;;5032132;28;20035;-46
2022/07/24 10:13:35;;;;;;;7.60;3.55;;;23.80;99.90;;;;;;5031797;28;20486;-46
2022/07/24 10:16:29;;;;;;;8.82;3.95;;;23.70;99.90;;;;;;5030526;28;20045;-46
2022/07/24 10:19:01;;;;;;;8.45;3.60;;;23.80;99.90;;;;;;5032055;28;20041;-45
2022/07/24 10:21:38;;;;;;;6.07;3.20;;;23.80;99.90;;;;;;5047218;28;20039;-45
2022/07/24 10:24:06;;;;;;;6.45;3.67;;;23.80;99.90;;;;;;5067039;28;20043;-46
2022/07/24 10:26:40;;;;;;;9.60;4.80;;;23.70;99.90;;;;;;5067271;28;20055;-45
2022/07/24 10:29:14;;;;;;;6.40;3.53;;;23.90;99.90;;;;;;5067630;28;20047;-45
2022/07/24 10:31:43;;;;;;;6.97;3.45;;;24.00;99.90;;;;;;5051754;28;20048;-51
2022/07/24 10:34:47;;;;;;;6.45;2.95;;;24.10;99.90;;;;;;5051735;28;20106;-45
2022/07/24 10:37:24;;;;;;;7.88;3.00;;;24.60;99.90;;;;;;5035126;28;20103;-46
2022/07/24 10:39:59;;;;;;;6.15;3.30;;;25.00;99.90;;;;;;5052028;28;20052;-45
2022/07/24 10:42:24;;;;;;;7.30;2.97;;;25.10;99.90;;;;;;5051767;28;20039;-46
2022/07/24 10:45:15;;;;;;;7.65;3.80;;;25.50;99.90;;;;;;5051699;28;20041;-47
2022/07/24 10:47:41;;;;;;;6.97;3.00;;;25.30;99.90;;;;;;5051930;28;20041;-48
2022/07/24 10:50:06;;;;;;;10.25;3.53;;;24.90;99.90;;;;;;5050615;28;20052;-47
2022/07/24 10:52:34;;;;;;;5.68;2.95;;;24.50;99.90;;;;;;5050246;28;20071;-47
2022/07/24 10:55:19;;;;;;;7.00;3.60;;;24.50;99.90;;;;;;5051425;28;20493;-47
2022/07/24 10:58:01;;;;;;;6.70;3.60;;;24.40;99.90;;;;;;5051539;28;20456;-46
2022/07/24 11:00:35;;;;;;;8.15;3.70;;;24.30;99.90;;;;;;5051966;28;20045;-46
2022/07/24 11:03:05;;;;;;;8.52;3.78;;;24.40;99.90;;;;;;5055413;28;20036;-48
2022/07/24 11:05:36;;;;;;;10.85;3.50;;;24.40;99.90;;;;;;5070599;28;20051;-48
2022/07/24 11:08:22;;;;;;;9.70;3.90;;;24.30;99.90;;;;;;5070548;28;20045;-45
2022/07/24 11:10:52;;;;;;;6.38;3.60;;;24.30;99.90;;;;;;5055305;28;20093;-45
2022/07/24 11:13:45;;;;;;;6.80;3.35;;;24.40;99.90;;;;;;5055065;28;20493;-50
2022/07/24 11:16:11;;;;;;;8.05;3.47;;;24.40;99.90;;;;;;5054030;28;20525;-50
2022/07/24 11:18:57;;;;;;;6.53;2.95;;;24.60;99.90;;;;;;5055030;28;20119;-47
2022/07/24 11:21:31;;;;;;;8.13;3.20;;;24.80;99.90;;;;;;5017344;28;20053;-48
2022/07/24 11:24:21;;;;;;;5.47;2.88;;;24.70;99.90;;;;;;5035123;28;20037;-49
2022/07/24 11:26:59;;;;;;;6.72;2.88;;;24.80;99.90;;;;;;5034915;28;20033;-49
2022/07/24 11:29:29;;;;;;;6.63;2.90;;;24.80;99.90;;;;;;5035205;28;20100;-50
2022/07/24 11:31:58;;;;;;;7.10;3.03;;;25.10;99.90;;;;;;5034937;28;20127;-48
2022/07/24 11:34:25;;;;;;;9.10;3.10;;;25.40;99.90;;;;;;5050179;28;20055;-46
2022/07/24 11:36:52;;;;;;;6.00;3.08;;;25.40;99.90;;;;;;5033472;28;20100;-46
2022/07/24 11:39:19;;;;;;;6.03;2.80;;;25.40;99.90;;;;;;5033824;28;20389;-50
2022/07/24 11:41:50;;;;;;;5.97;2.75;;;25.30;99.90;;;;;;5034902;28;20048;-46
2022/07/24 11:44:28;;;;;;;7.70;3.45;;;25.60;99.90;;;;;;5034960;28;20049;-46
2022/07/24 11:46:56;;;;;;;6.15;2.72;;;25.70;99.90;;;;;;5034485;28;20049;-45
2022/07/24 11:49:22;;;;;;;5.22;2.63;;;25.60;99.90;;;;;;5034592;28;20064;-46
2022/07/24 11:51:51;;;;;;;6.28;2.92;;;25.70;99.90;;;;;;5034665;28;20441;-45
2022/07/24 11:54:28;;;;;;;5.47;2.70;;;25.60;99.90;;;;;;5034657;28;20071;-48
2022/07/24 11:56:55;;;;;;;6.22;2.75;;;25.70;99.90;;;;;;5034845;28;20049;-47
2022/07/24 11:59:29;;;;;;;6.05;2.85;;;25.90;99.90;;;;;;5034662;28;20042;-50
2022/07/24 12:02:09;;;;;;;7.00;3.00;;;26.10;99.90;;;;;;5032887;28;20037;-49
2022/07/24 12:04:37;;;;;;;7.55;3.33;;;26.20;99.90;;;;;;5034448;28;20489;-51
2022/07/24 12:07:11;;;;;;;6.80;3.30;;;26.10;99.90;;;;;;5034063;28;20541;-50
2022/07/24 12:09:45;;;;;;;9.10;3.67;;;26.30;99.90;;;;;;5034174;28;20045;-45
2022/07/24 12:12:38;;;;;;;6.13;3.10;;;26.20;99.90;;;;;;5033127;28;20038;-46
2022/07/24 12:15:06;;;;;;;9.18;3.80;;;26.20;99.90;;;;;;5033961;28;20061;-45
2022/07/24 12:17:35;;;;;;;7.75;3.10;;;26.30;99.90;;;;;;5034182;28;20140;-47
2022/07/24 12:20:05;;;;;;;6.47;2.83;;;26.40;99.90;;;;;;5038833;28;20029;-45
2022/07/24 12:22:31;;;;;;;7.43;3.10;;;26.60;99.90;;;;;;5053878;28;20112;-45
2022/07/24 12:24:58;;;;;;;5.57;2.90;;;26.60;99.90;;;;;;5053728;28;20573;-46
2022/07/24 12:27:40;;;;;;;6.97;2.85;;;26.60;99.90;;;;;;5069066;28;20045;-45
2022/07/24 12:30:28;;;;;;;5.70;2.80;;;26.10;99.90;;;;;;5053798;28;20041;-45
2022/07/24 12:33:01;;;;;;;5.43;2.97;;;26.30;99.90;;;;;;5068914;28;20374;-46
2022/07/24 12:35:29;;;;;;;6.95;2.78;;;26.20;99.90;;;;;;5053851;28;20033;-51
2022/07/24 12:37:57;;;;;;;6.72;3.00;;;26.50;99.90;;;;;;5053691;28;20493;-48
2022/07/24 12:40:30;;;;;;;6.65;2.50;;;26.70;99.90;;;;;;5053662;28;20102;-46
2022/07/24 12:43:10;;;;;;;6.20;3.00;;;26.70;99.90;;;;;;5053429;28;20053;-46